Time,TemperatureF,DewpointF,PressureIn,WindDirection,WindDirectionDegrees,WindSpeedMPH,WindSpeedGustMPH,Humidity,HourlyPrecipIn,Conditions,Clouds,dailyrainin,SoftwareType,DateUTC
2013-08-31 00:13:00,58.0,53.0,-100.00,NW,325,0.0,0.0,86,0.00,,,-99.99,,2013-08-31 05:13:00,
2013-08-31 00:53:00,58.0,54.0,-100.00,WNW,285,0.0,1.0,86,0.00,,,-99.99,,2013-08-31 05:53:00,
2013-08-31 01:02:00,58.0,54.0,-100.00,WNW,285,0.0,1.0,86,0.00,,,-99.99,,2013-08-31 06:02:00,
2013-08-31 01:12:00,58.0,54.0,-100.00,WNW,285,0.0,1.0,86,0.00,,,-99.99,,2013-08-31 06:12:00,
2013-08-31 01:42:00,59.0,55.0,-100.00,West,275,1.0,1.0,86,0.00,,,-99.99,,2013-08-31 06:42:00,
2013-08-31 01:52:00,59.0,55.0,-100.00,West,275,1.0,1.0,86,0.00,,,-99.99,,2013-08-31 06:52:00,
2013-08-31 02:02:00,59.0,55.0,-100.00,West,275,1.0,1.0,86,0.00,,,-99.99,,2013-08-31 07:02:00,
2013-08-31 02:12:00,59.0,55.0,-100.00,West,275,1.0,1.0,86,0.00,,,-99.99,,2013-08-31 07:12:00,
2013-08-31 02:52:00,58.0,54.0,-100.00,NW,310,0.0,1.0,86,0.00,,,-99.99,,2013-08-31 07:52:00,
2013-08-31 03:03:00,58.0,54.0,-100.00,NW,310,0.0,1.0,86,0.00,,,-99.99,,2013-08-31 08:03:00,
2013-08-31 03:12:00,58.0,54.0,-100.00,NW,310,0.0,1.0,86,0.00,,,-99.99,,2013-08-31 08:12:00,
2013-08-31 03:52:00,56.0,53.0,-100.00,North,0,0.0,1.0,87,0.00,,,-99.99,,2013-08-31 08:52:00,
2013-08-31 04:02:00,56.0,53.0,-100.00,North,0,0.0,1.0,87,0.00,,,-99.99,,2013-08-31 09:02:00,
2013-08-31 04:12:00,56.0,53.0,-100.00,North,0,0.0,1.0,87,0.00,,,-99.99,,2013-08-31 09:12:00,
2013-08-31 04:53:00,56.0,52.0,-100.00,WNW,290,1.0,2.0,87,0.00,,,-99.99,,2013-08-31 09:53:00,
2013-08-31 05:03:00,56.0,52.0,-100.00,WNW,290,1.0,2.0,87,0.00,,,-99.99,,2013-08-31 10:03:00,
2013-08-31 05:12:00,56.0,52.0,-100.00,WNW,290,1.0,2.0,87,0.00,,,-99.99,,2013-08-31 10:12:00,
2013-08-31 05:53:00,55.0,52.0,-100.00,West,275,0.0,0.0,87,0.00,,,-99.99,,2013-08-31 10:53:00,
2013-08-31 06:02:00,55.0,52.0,-100.00,West,275,0.0,0.0,87,0.00,,,-99.99,,2013-08-31 11:02:00,
2013-08-31 06:12:00,55.0,52.0,-100.00,West,275,0.0,0.0,87,0.00,,,-99.99,,2013-08-31 11:12:00,
2013-08-31 07:11:00,54.0,51.0,-100.00,NNW,330,0.0,0.0,87,0.00,,,-99.99,,2013-08-31 12:11:00,
2013-08-31 07:52:00,55.0,51.0,-100.00,West,280,0.0,1.0,87,0.00,,,-99.99,,2013-08-31 12:52:00,
2013-08-31 08:01:00,55.0,51.0,-100.00,West,280,0.0,1.0,87,0.00,,,-99.99,,2013-08-31 13:01:00,
2013-08-31 08:11:00,55.0,51.0,-100.00,West,280,0.0,1.0,87,0.00,,,-99.99,,2013-08-31 13:11:00,
2013-08-31 08:52:00,61.0,57.0,-100.00,NE,45,0.0,1.0,87,0.00,,,-99.99,,2013-08-31 13:52:00,
2013-08-31 09:02:00,61.0,57.0,-100.00,NE,45,0.0,1.0,87,0.00,,,-99.99,,2013-08-31 14:02:00,
2013-08-31 09:12:00,61.0,57.0,-100.00,NE,45,0.0,1.0,87,0.00,,,-99.99,,2013-08-31 14:12:00,
2013-08-31 09:52:00,64.0,60.0,-100.00,WSW,245,1.0,4.0,86,0.00,,,-99.99,,2013-08-31 14:52:00,
2013-08-31 10:01:00,64.0,60.0,-100.00,WSW,245,1.0,4.0,86,0.00,,,-99.99,,2013-08-31 15:01:00,
2013-08-31 10:11:00,64.0,60.0,-100.00,WSW,245,1.0,4.0,86,0.00,,,-99.99,,2013-08-31 15:11:00,
2013-08-31 10:14:00,70.0,57.0,-100.00,SSW,195,2.0,7.0,63,0.00,,,-99.99,,2013-08-31 15:14:00,
2013-08-31 10:55:00,70.0,57.0,-100.00,SSW,195,2.0,7.0,63,0.00,,,-99.99,,2013-08-31 15:55:00,
2013-08-31 11:04:00,70.0,57.0,-100.00,SSW,195,2.0,7.0,63,0.00,,,-99.99,,2013-08-31 16:04:00,
2013-08-31 19:42:00,74.0,65.0,-100.00,WNW,285,1.0,1.0,74,0.00,,,-99.99,,2013-09-01 00:42:00,
2013-08-31 19:52:00,74.0,65.0,-100.00,WNW,285,1.0,1.0,74,0.00,,,-99.99,,2013-09-01 00:52:00,
2013-08-31 20:02:00,74.0,65.0,-100.00,WNW,285,1.0,1.0,74,0.00,,,-99.99,,2013-09-01 01:02:00,
2013-08-31 20:11:00,74.0,65.0,-100.00,WNW,285,1.0,1.0,74,0.00,,,-99.99,,2013-09-01 01:11:00,
2013-08-31 20:42:00,72.0,65.0,-100.00,WNW,285,1.0,2.0,80,0.00,,,-99.99,,2013-09-01 01:42:00,
2013-08-31 20:52:00,72.0,65.0,-100.00,WNW,285,1.0,2.0,80,0.00,,,-99.99,,2013-09-01 01:52:00,
2013-08-31 21:02:00,72.0,65.0,-100.00,WNW,285,1.0,2.0,80,0.00,,,-99.99,,2013-09-01 02:02:00,
2013-08-31 21:12:00,72.0,65.0,-100.00,WNW,285,1.0,2.0,80,0.00,,,-99.99,,2013-09-01 02:12:00,
2013-08-31 21:53:00,66.0,61.0,-100.00,West,280,4.0,14.0,85,0.01,,,-99.99,,2013-09-01 02:53:00,
2013-08-31 22:02:00,66.0,61.0,-100.00,West,280,4.0,14.0,85,0.01,,,-99.99,,2013-09-01 03:02:00,
2013-08-31 22:12:00,66.0,61.0,-100.00,West,280,4.0,14.0,85,0.01,,,-99.99,,2013-09-01 03:12:00,
2013-08-31 22:44:00,65.0,61.0,-100.00,ESE,120,3.0,4.0,86,0.00,,,-99.99,,2013-09-01 03:44:00,
2013-08-31 22:54:00,65.0,61.0,-100.00,ESE,120,3.0,4.0,86,0.00,,,-99.99,,2013-09-01 03:54:00,
2013-08-31 23:03:00,-999.0,-99.9,-100.00,ESE,120,3.0,4.0,-999,-99.99,,,-99.99,,2013-09-01 04:03:00,
2013-08-31 23:43:00,65.0,60.0,-100.00,WNW,285,0.0,4.0,86,0.00,,,-99.99,,2013-09-01 04:43:00,
2013-08-31 23:54:00,65.0,60.0,-100.00,WNW,285,0.0,4.0,86,0.00,,,-99.99,,2013-09-01 04:54:00,